Time;durP1;ratioP1;P1;durP2;ratioP2;P2;SDS_P1;SDS_P2;PMS_P1;PMS_P2;Temp;Humidity;BMP_temperature;BMP_pressure;BME280_temperature;BME280_humidity;BME280_pressure;Samples;Min_cycle;Max_cycle;Signal;HPM_P1;HPM_P2
2022/07/13 00:00:01;;;;;;;5.43;2.30;;;20.40;99.90;;;;;;5106681;28;20043;-76
2022/07/13 00:02:26;;;;;;;5.40;2.30;;;20.40;99.90;;;;;;5088227;28;20040;-76
2022/07/13 00:04:52;;;;;;;4.30;1.90;;;20.40;99.90;;;;;;5105490;28;20109;-76
2022/07/13 00:07:18;;;;;;;5.18;2.20;;;20.40;99.90;;;;;;5112461;28;20043;-76
2022/07/13 00:09:44;;;;;;;6.78;3.40;;;20.40;99.90;;;;;;5101920;28;20079;-78
2022/07/13 00:12:10;;;;;;;6.15;2.72;;;20.40;99.90;;;;;;5096281;28;20491;-77
2022/07/13 00:14:36;;;;;;;5.43;2.97;;;20.30;99.90;;;;;;5106279;28;20525;-78
2022/07/13 00:17:02;;;;;;;4.53;2.00;;;20.30;99.90;;;;;;5092354;28;20082;-77
2022/07/13 00:19:27;;;;;;;5.53;2.90;;;20.30;99.90;;;;;;5091810;28;20079;-77
2022/07/13 00:21:54;;;;;;;5.30;2.50;;;20.30;99.90;;;;;;5110261;28;20401;-77
2022/07/13 00:24:21;;;;;;;6.30;2.50;;;20.20;99.90;;;;;;5100699;28;20398;-77
2022/07/13 00:26:47;;;;;;;5.30;2.65;;;20.20;99.90;;;;;;5087124;28;20063;-78
2022/07/13 00:29:13;;;;;;;6.28;3.20;;;20.20;99.90;;;;;;5093827;28;20055;-78
2022/07/13 00:31:38;;;;;;;6.95;3.45;;;20.20;99.90;;;;;;5104257;28;20123;-77
2022/07/13 00:34:04;;;;;;;5.82;3.65;;;20.20;99.90;;;;;;5115813;28;20086;-77
2022/07/13 00:36:30;;;;;;;6.45;2.83;;;20.10;99.90;;;;;;5116702;27;20463;-77
2022/07/13 00:39:01;;;;;;;6.43;3.90;;;20.10;99.90;;;;;;5109875;28;20043;-82
2022/07/13 00:41:27;;;;;;;7.32;3.92;;;20.10;99.90;;;;;;5116697;28;20052;-78
2022/07/13 00:43:53;;;;;;;6.38;3.83;;;20.10;99.90;;;;;;5113674;28;20055;-79
2022/07/13 00:46:19;;;;;;;6.35;4.03;;;20.00;99.90;;;;;;5116008;28;20047;-77
2022/07/13 00:48:45;;;;;;;5.38;2.88;;;20.00;99.90;;;;;;5111091;28;20554;-78
2022/07/13 00:51:11;;;;;;;5.63;2.97;;;20.10;99.90;;;;;;5102421;28;20051;-77
2022/07/13 00:53:38;;;;;;;7.57;3.40;;;20.10;99.90;;;;;;5093765;28;20131;-77
2022/07/13 00:56:06;;;;;;;5.70;2.97;;;20.10;99.90;;;;;;5097872;28;20047;-78
2022/07/13 00:58:32;;;;;;;5.80;3.50;;;20.10;99.90;;;;;;5094174;28;20487;-79
2022/07/13 01:00:58;;;;;;;6.82;3.83;;;20.10;99.90;;;;;;5115015;28;20048;-77
2022/07/13 01:03:24;;;;;;;5.78;2.60;;;20.10;99.90;;;;;;5114782;28;20126;-78
2022/07/13 01:05:52;;;;;;;6.15;3.67;;;20.10;99.90;;;;;;5083103;28;20053;-77
2022/07/13 01:08:20;;;;;;;6.25;3.65;;;20.10;99.90;;;;;;5097884;28;20047;-77
2022/07/13 01:10:47;;;;;;;6.15;4.55;;;20.10;99.90;;;;;;5101482;28;20035;-77
2022/07/13 01:13:16;;;;;;;7.03;3.83;;;20.10;99.90;;;;;;5111000;28;20070;-78
2022/07/13 01:15:42;;;;;;;5.40;2.90;;;20.10;99.90;;;;;;5109431;28;20062;-77
2022/07/13 01:18:12;;;;;;;5.30;3.20;;;20.10;99.90;;;;;;5114538;28;20043;-78
2022/07/13 01:20:39;;;;;;;6.65;3.78;;;20.10;99.90;;;;;;5097198;28;20048;-78
2022/07/13 01:23:10;;;;;;;7.10;4.40;;;20.10;99.90;;;;;;5111092;28;20095;-77
2022/07/13 01:25:36;;;;;;;7.22;4.70;;;20.10;99.90;;;;;;5107351;28;20059;-77
2022/07/13 01:28:02;;;;;;;6.88;3.83;;;20.10;99.90;;;;;;5110860;28;20079;-77
2022/07/13 01:30:27;;;;;;;6.30;3.53;;;20.00;99.90;;;;;;5105477;28;20102;-77
2022/07/13 01:32:53;;;;;;;7.18;3.30;;;20.00;99.90;;;;;;5114913;28;20478;-76
2022/07/13 01:35:21;;;;;;;5.97;4.40;;;20.00;99.90;;;;;;5115406;27;20096;-77
2022/07/13 01:37:48;;;;;;;7.03;5.45;;;20.10;99.90;;;;;;5111777;28;20048;-77
2022/07/13 01:40:14;;;;;;;7.35;5.07;;;20.00;99.90;;;;;;5106506;28;20048;-76
2022/07/13 01:42:45;;;;;;;8.27;5.10;;;20.00;99.90;;;;;;5107500;28;20051;-77
2022/07/13 01:45:12;;;;;;;6.47;4.65;;;20.00;99.90;;;;;;5099550;28;20047;-77
2022/07/13 01:47:39;;;;;;;6.68;4.95;;;20.00;99.90;;;;;;5113962;28;20062;-77
2022/07/13 01:50:07;;;;;;;8.73;4.95;;;20.00;99.90;;;;;;5078914;28;20040;-76
2022/07/13 01:52:33;;;;;;;7.53;4.80;;;20.00;99.90;;;;;;5104014;28;20059;-77
2022/07/13 01:54:59;;;;;;;8.95;5.78;;;20.00;99.90;;;;;;5113081;28;20044;-77
2022/07/13 01:57:24;;;;;;;7.20;5.50;;;20.00;99.90;;;;;;5113564;28;20047;-77
2022/07/13 01:59:51;;;;;;;7.28;4.65;;;20.00;99.90;;;;;;5113093;28;20058;-79
2022/07/13 02:02:17;;;;;;;7.88;5.20;;;20.00;99.90;;;;;;5108233;28;20048;-77
2022/07/13 02:04:43;;;;;;;6.45;5.20;;;20.00;99.90;;;;;;5104934;28;20105;-76
2022/07/13 02:07:09;;;;;;;7.97;5.70;;;20.00;99.90;;;;;;5098599;28;20049;-77
2022/07/13 02:09:35;;;;;;;8.55;6.32;;;20.00;99.90;;;;;;5114873;27;20130;-76
2022/07/13 02:12:00;;;;;;;7.47;6.25;;;19.90;99.90;;;;;;5114596;28;20183;-76
2022/07/13 02:14:26;;;;;;;8.15;6.35;;;19.90;99.90;;;;;;5113778;28;20054;-76
2022/07/13 02:16:51;;;;;;;8.57;7.10;;;19.90;99.90;;;;;;5113097;28;20122;-78
2022/07/13 02:19:18;;;;;;;9.10;7.43;;;19.90;99.90;;;;;;5108608;28;20483;-76
2022/07/13 02:21:46;;;;;;;8.25;6.90;;;19.90;99.90;;;;;;5108317;28;20044;-77
2022/07/13 02:24:11;;;;;;;10.95;7.63;;;19.90;99.90;;;;;;5094783;28;20375;-76
2022/07/13 02:26:37;;;;;;;9.20;6.85;;;19.90;99.90;;;;;;5112695;28;20081;-76
2022/07/13 02:29:04;;;;;;;10.60;6.88;;;19.90;99.90;;;;;;5108918;28;20173;-76
2022/07/13 02:31:30;;;;;;;8.68;6.45;;;19.80;99.90;;;;;;5105115;28;20486;-76
2022/07/13 02:33:55;;;;;;;10.23;7.57;;;19.80;99.90;;;;;;5113651;28;20044;-75
2022/07/13 02:36:21;;;;;;;10.23;7.03;;;19.80;99.90;;;;;;5113941;28;20500;-76
2022/07/13 02:38:47;;;;;;;8.93;6.78;;;19.80;99.90;;;;;;5110348;28;20047;-76
2022/07/13 02:41:12;;;;;;;10.10;7.60;;;19.80;99.90;;;;;;5096319;28;20059;-76
2022/07/13 02:43:38;;;;;;;10.05;7.82;;;19.80;99.90;;;;;;5098848;28;20119;-76
2022/07/13 02:46:04;;;;;;;9.75;8.30;;;19.80;99.90;;;;;;5112451;28;20039;-76
2022/07/13 02:48:30;;;;;;;10.18;8.10;;;19.90;99.90;;;;;;5112243;28;20048;-76
2022/07/13 02:50:55;;;;;;;12.45;8.90;;;19.90;99.90;;;;;;5114366;28;20039;-75
2022/07/13 02:53:21;;;;;;;10.40;8.90;;;19.90;99.90;;;;;;5111547;28;20044;-76
2022/07/13 02:55:47;;;;;;;9.60;8.13;;;19.90;99.90;;;;;;5047994;28;20102;-76
2022/07/13 02:58:12;;;;;;;11.20;9.07;;;19.90;99.90;;;;;;5113869;28;20126;-76
2022/07/13 03:00:38;;;;;;;10.00;8.85;;;19.90;99.90;;;;;;5111722;28;20052;-76
2022/07/13 03:03:04;;;;;;;10.75;9.63;;;19.90;99.90;;;;;;5113682;28;20079;-75
2022/07/13 03:05:29;;;;;;;11.57;8.82;;;19.80;99.90;;;;;;5084363;28;20130;-76
2022/07/13 03:07:55;;;;;;;10.75;9.50;;;19.80;99.90;;;;;;5110056;28;20469;-75
2022/07/13 03:10:20;;;;;;;11.43;9.57;;;19.80;99.90;;;;;;5112408;28;20394;-75
2022/07/13 03:12:46;;;;;;;11.27;8.77;;;19.80;99.90;;;;;;5098746;28;20055;-76
2022/07/13 03:15:12;;;;;;;10.23;8.57;;;19.80;99.90;;;;;;5094895;28;20486;-75
2022/07/13 03:17:40;;;;;;;9.15;6.38;;;19.70;99.90;;;;;;5113631;28;20130;-75
2022/07/13 03:20:07;;;;;;;8.73;7.50;;;19.70;99.90;;;;;;5112322;28;20051;-75
2022/07/13 03:22:33;;;;;;;9.55;7.68;;;19.70;99.90;;;;;;5108729;28;20055;-76
2022/07/13 03:24:59;;;;;;;9.63;8.20;;;19.70;99.90;;;;;;5114200;28;20047;-76
2022/07/13 03:27:24;;;;;;;9.75;8.43;;;19.70;99.90;;;;;;5112495;28;20075;-75
2022/07/13 03:29:50;;;;;;;8.98;7.60;;;19.70;99.90;;;;;;5093114;28;20055;-76
2022/07/13 03:32:16;;;;;;;8.90;7.63;;;19.70;99.90;;;;;;5115445;28;20081;-75
2022/07/13 03:34:41;;;;;;;9.90;7.82;;;19.70;99.90;;;;;;5114861;28;20166;-76
2022/07/13 03:37:08;;;;;;;9.60;8.55;;;19.70;99.90;;;;;;5115275;28;20046;-76
2022/07/13 03:39:34;;;;;;;9.98;8.00;;;19.70;99.90;;;;;;5098757;28;20490;-76
2022/07/13 03:42:00;;;;;;;10.27;8.65;;;19.70;99.90;;;;;;5114088;28;20046;-76
2022/07/13 03:44:26;;;;;;;11.70;8.82;;;19.70;99.90;;;;;;5094301;28;20047;-76
2022/07/13 03:46:52;;;;;;;10.55;8.20;;;19.70;99.90;;;;;;5107152;28;20047;-76
2022/07/13 03:49:17;;;;;;;10.57;7.63;;;19.70;99.90;;;;;;5128850;27;20417;-74
2022/07/13 03:51:46;;;;;;;8.90;6.57;;;19.70;99.90;;;;;;5102684;27;20122;-76
2022/07/13 03:54:11;;;;;;;9.77;8.30;;;19.60;99.90;;;;;;5127942;27;20053;-75
2022/07/13 03:56:39;;;;;;;8.18;6.45;;;19.70;99.90;;;;;;5117437;27;20371;-76
2022/07/13 03:59:05;;;;;;;8.38;6.68;;;19.70;99.90;;;;;;5084914;27;20053;-76
2022/07/13 04:01:31;;;;;;;7.82;7.03;;;19.70;99.90;;;;;;5105667;28;20522;-75
2022/07/13 04:03:58;;;;;;;9.43;7.72;;;19.70;99.90;;;;;;5123166;27;20046;-76
2022/07/13 04:06:25;;;;;;;8.75;6.80;;;19.70;99.90;;;;;;5106861;28;20047;-76
2022/07/13 04:08:51;;;;;;;9.77;8.32;;;19.70;99.90;;;;;;5095751;28;20051;-77
2022/07/13 04:11:17;;;;;;;10.38;8.90;;;19.70;99.90;;;;;;5127657;27;20095;-76
2022/07/13 04:13:43;;;;;;;10.98;8.98;;;19.70;99.90;;;;;;5101448;28;20123;-78
2022/07/13 04:16:09;;;;;;;10.10;9.00;;;19.70;99.90;;;;;;5107622;27;20504;-76
2022/07/13 04:18:36;;;;;;;9.13;7.45;;;19.70;99.90;;;;;;5087861;27;20047;-76
2022/07/13 04:21:02;;;;;;;10.20;7.65;;;19.70;99.90;;;;;;5118756;27;20051;-76
2022/07/13 04:23:29;;;;;;;9.05;7.70;;;19.70;99.90;;;;;;5119331;27;20055;-76
2022/07/13 04:25:56;;;;;;;9.35;7.18;;;19.70;99.90;;;;;;5099264;28;20177;-76
2022/07/13 04:28:22;;;;;;;9.65;8.13;;;19.70;99.90;;;;;;5084183;27;20063;-76
2022/07/13 04:30:47;;;;;;;10.25;8.35;;;19.70;99.90;;;;;;5118204;27;20043;-76
2022/07/13 04:33:14;;;;;;;9.32;7.22;;;19.80;99.90;;;;;;5117754;27;20047;-77
2022/07/13 04:35:40;;;;;;;8.40;7.15;;;19.70;99.90;;;;;;5101805;28;20051;-78
2022/07/13 04:38:06;;;;;;;8.63;7.63;;;19.80;99.90;;;;;;5107257;28;20047;-77
2022/07/13 04:40:32;;;;;;;10.15;7.82;;;19.80;99.90;;;;;;5135303;27;20039;-76
2022/07/13 04:42:57;;;;;;;11.43;7.30;;;19.90;99.90;;;;;;5136895;27;20465;-77
2022/07/13 04:45:23;;;;;;;8.63;6.80;;;19.90;99.90;;;;;;5116588;27;20078;-76
2022/07/13 04:47:49;;;;;;;9.43;7.35;;;19.90;99.90;;;;;;5137040;27;20091;-77
2022/07/13 04:50:15;;;;;;;8.63;7.00;;;20.00;99.90;;;;;;5112685;28;20039;-76
2022/07/13 04:52:41;;;;;;;9.13;7.32;;;20.00;99.90;;;;;;5127690;27;20047;-76
2022/07/13 04:55:07;;;;;;;9.18;6.80;;;20.00;99.90;;;;;;5101246;27;20043;-76
2022/07/13 04:57:33;;;;;;;8.45;7.00;;;20.00;99.90;;;;;;5084454;27;20103;-76
2022/07/13 04:59:59;;;;;;;10.00;7.07;;;20.10;99.90;;;;;;5117096;27;20039;-76
2022/07/13 05:02:25;;;;;;;8.55;7.10;;;20.10;99.90;;;;;;5118472;27;20050;-76
2022/07/13 05:04:50;;;;;;;8.80;6.57;;;20.10;99.90;;;;;;5135870;27;20079;-76
2022/07/13 05:07:16;;;;;;;7.50;6.35;;;20.20;99.90;;;;;;5117574;27;20129;-76
2022/07/13 05:09:42;;;;;;;9.10;6.45;;;20.20;99.90;;;;;;5114612;27;20051;-76
2022/07/13 05:12:08;;;;;;;8.30;6.47;;;20.20;99.90;;;;;;5132546;27;20051;-76
2022/07/13 05:14:35;;;;;;;8.73;6.20;;;20.30;99.90;;;;;;5088228;28;20031;-76
2022/07/13 05:17:01;;;;;;;8.98;5.88;;;20.30;99.90;;;;;;5106180;27;20417;-76
2022/07/13 05:19:27;;;;;;;8.85;6.93;;;20.40;99.90;;;;;;5129205;27;20104;-76
2022/07/13 05:21:53;;;;;;;9.75;7.47;;;20.40;99.90;;;;;;5114613;28;20060;-76
2022/07/13 05:24:19;;;;;;;9.13;7.00;;;20.50;99.90;;;;;;5106792;27;20474;-76
2022/07/13 05:26:44;;;;;;;9.55;7.10;;;20.50;99.90;;;;;;5096466;28;20047;-79
2022/07/13 05:29:10;;;;;;;8.63;6.82;;;20.60;99.90;;;;;;5115963;27;20129;-76
2022/07/13 05:31:36;;;;;;;9.75;7.40;;;20.60;99.90;;;;;;5085905;27;20558;-76
2022/07/13 05:34:02;;;;;;;9.45;6.38;;;20.70;99.90;;;;;;5117235;27;20050;-76
2022/07/13 05:36:27;;;;;;;9.35;6.72;;;20.70;99.90;;;;;;5095750;27;20035;-75
2022/07/13 05:38:53;;;;;;;8.65;6.57;;;20.80;99.90;;;;;;5112289;28;20047;-76
2022/07/13 05:41:19;;;;;;;8.35;6.22;;;20.90;99.90;;;;;;5130605;27;20047;-77
2022/07/13 05:43:45;;;;;;;8.82;6.00;;;21.00;99.90;;;;;;5112611;28;20490;-76
2022/07/13 05:46:11;;;;;;;8.80;6.00;;;21.10;99.90;;;;;;5127079;27;20482;-76
2022/07/13 05:48:36;;;;;;;7.47;5.18;;;21.10;99.90;;;;;;5112160;27;20051;-75
2022/07/13 05:51:02;;;;;;;6.20;4.88;;;21.20;99.90;;;;;;5106888;27;20043;-76
2022/07/13 05:53:28;;;;;;;7.25;5.07;;;21.20;99.90;;;;;;5134175;27;20260;-76
2022/07/13 05:55:54;;;;;;;7.75;4.93;;;21.30;99.90;;;;;;5115792;27;20461;-76
2022/07/13 05:58:21;;;;;;;6.78;4.72;;;21.40;99.90;;;;;;5103864;28;20081;-76
2022/07/13 06:00:46;;;;;;;7.00;4.60;;;21.50;99.90;;;;;;5126500;27;20079;-78
2022/07/13 06:03:12;;;;;;;7.68;4.78;;;21.60;99.90;;;;;;5106693;27;20543;-77
2022/07/13 06:05:38;;;;;;;6.95;4.60;;;21.70;99.90;;;;;;5110900;27;20466;-77
2022/07/13 06:08:04;;;;;;;6.78;4.65;;;21.80;99.90;;;;;;5072878;27;20039;-79
2022/07/13 06:10:30;;;;;;;7.13;4.70;;;21.90;99.90;;;;;;5108971;28;20508;-76
2022/07/13 06:12:55;;;;;;;7.47;4.70;;;21.90;99.90;;;;;;5118376;27;20066;-77
2022/07/13 06:15:21;;;;;;;6.40;4.40;;;22.00;99.90;;;;;;5125202;27;20040;-76
2022/07/13 06:17:47;;;;;;;6.35;4.35;;;22.00;99.90;;;;;;5118341;27;20092;-73
2022/07/13 06:20:13;;;;;;;7.65;4.13;;;22.10;99.90;;;;;;5100022;28;20047;-77
2022/07/13 06:22:38;;;;;;;6.70;4.00;;;22.20;99.90;;;;;;5125720;27;20493;-77
2022/07/13 06:25:04;;;;;;;7.20;4.20;;;22.30;99.90;;;;;;5129714;27;20059;-77
2022/07/13 06:27:30;;;;;;;6.43;4.25;;;22.30;99.90;;;;;;5112738;28;20052;-77
2022/07/13 06:29:56;;;;;;;5.75;4.00;;;22.40;99.90;;;;;;5080257;27;20500;-76
2022/07/13 06:32:22;;;;;;;6.10;3.90;;;22.40;99.90;;;;;;5130305;27;20043;-77
2022/07/13 06:34:48;;;;;;;7.30;4.07;;;22.60;99.90;;;;;;5110383;27;20055;-75
2022/07/13 06:37:13;;;;;;;6.88;3.78;;;22.60;99.90;;;;;;5114722;27;20103;-77
2022/07/13 06:39:39;;;;;;;6.47;3.60;;;22.70;99.90;;;;;;5087386;28;20055;-76
2022/07/13 06:42:05;;;;;;;6.10;3.80;;;22.80;99.90;;;;;;5127971;27;20043;-77
2022/07/13 06:44:30;;;;;;;7.10;3.70;;;22.90;99.90;;;;;;5122923;27;20076;-76
2022/07/13 06:46:59;;;;;;;6.80;3.90;;;23.10;99.90;;;;;;5109568;27;20078;-75
2022/07/13 06:49:26;;;;;;;5.80;3.78;;;23.40;99.90;;;;;;5133698;27;20505;-76
2022/07/13 06:51:54;;;;;;;8.20;3.90;;;23.60;99.90;;;;;;5078438;27;20078;-79
2022/07/13 06:54:20;;;;;;;5.57;3.67;;;23.70;99.90;;;;;;5101395;27;20057;-75
2022/07/13 06:56:46;;;;;;;7.55;3.80;;;23.80;99.90;;;;;;5096617;28;20137;-77
2022/07/13 06:59:11;;;;;;;7.03;3.78;;;23.90;99.90;;;;;;5124959;27;20135;-77
2022/07/13 07:01:37;;;;;;;6.57;3.80;;;24.00;99.90;;;;;;5119287;27;20043;-76
2022/07/13 07:04:03;;;;;;;7.07;3.53;;;24.10;99.90;;;;;;5082530;28;20489;-76
2022/07/13 07:06:29;;;;;;;7.45;3.63;;;24.30;99.90;;;;;;5102084;27;20066;-77
2022/07/13 07:08:54;;;;;;;7.05;3.70;;;24.50;99.90;;;;;;5084676;28;20075;-75
2022/07/13 07:11:20;;;;;;;7.82;4.47;;;24.90;99.90;;;;;;5114992;27;20112;-77
2022/07/13 07:13:46;;;;;;;5.35;3.72;;;25.10;99.20;;;;;;5097124;27;20062;-74
2022/07/13 07:16:11;;;;;;;5.20;3.30;;;25.50;98.50;;;;;;5116019;27;20040;-75
2022/07/13 07:18:37;;;;;;;5.60;3.30;;;25.80;97.90;;;;;;5089630;28;20505;-75
2022/07/13 07:21:03;;;;;;;7.47;3.63;;;26.50;98.10;;;;;;5114042;27;20097;-74
2022/07/13 07:23:29;;;;;;;7.35;3.95;;;26.90;94.40;;;;;;5117218;27;20093;-82
2022/07/13 07:25:54;;;;;;;6.53;3.88;;;26.90;93.30;;;;;;5117352;28;20120;-76
2022/07/13 07:28:20;;;;;;;6.25;3.70;;;27.20;92.30;;;;;;5097370;28;20374;-74
2022/07/13 07:30:46;;;;;;;7.38;3.75;;;27.30;91.60;;;;;;5113938;28;20109;-74
2022/07/13 07:33:12;;;;;;;7.15;3.90;;;27.50;91.70;;;;;;5081978;28;20069;-78
2022/07/13 07:35:37;;;;;;;6.30;3.97;;;27.30;90.20;;;;;;5104131;28;20040;-75
2022/07/13 07:38:03;;;;;;;7.15;3.80;;;27.10;90.80;;;;;;5116210;28;20045;-76
2022/07/13 07:40:29;;;;;;;8.27;4.45;;;26.80;91.30;;;;;;5116578;28;20035;-75
2022/07/13 07:42:54;;;;;;;8.52;5.10;;;26.50;91.10;;;;;;5100573;28;20135;-75
2022/07/13 07:45:20;;;;;;;8.63;5.10;;;26.00;90.80;;;;;;5114450;28;20054;-75
2022/07/13 07:47:46;;;;;;;8.50;5.32;;;25.80;92.50;;;;;;5102997;28;20043;-73
2022/07/13 07:50:12;;;;;;;8.38;5.30;;;25.50;93.10;;;;;;5100088;28;20047;-75
2022/07/13 07:52:38;;;;;;;8.23;4.80;;;25.30;93.90;;;;;;5113533;28;20046;-75
2022/07/13 07:55:04;;;;;;;8.15;5.00;;;25.20;95.30;;;;;;5103270;28;21372;-77
2022/07/13 07:57:30;;;;;;;8.10;4.90;;;25.20;95.90;;;;;;5119159;28;20062;-76
2022/07/13 07:59:55;;;;;;;8.27;5.50;;;25.20;96.70;;;;;;5119056;28;20048;-75
2022/07/13 08:02:21;;;;;;;8.18;5.70;;;25.20;97.00;;;;;;5122242;28;20126;-76
2022/07/13 08:04:47;;;;;;;8.27;5.10;;;25.20;96.90;;;;;;5104315;28;20058;-77
2022/07/13 08:07:13;;;;;;;7.97;5.65;;;25.20;97.30;;;;;;5083717;28;20053;-75
2022/07/13 08:09:39;;;;;;;6.95;5.15;;;25.30;98.00;;;;;;5105067;28;20040;-75
2022/07/13 08:12:04;;;;;;;8.60;5.07;;;25.40;98.60;;;;;;5119130;28;20498;-75
2022/07/13 08:14:31;;;;;;;7.32;5.53;;;25.40;98.90;;;;;;5122315;28;20086;-76
2022/07/13 08:16:57;;;;;;;9.15;5.82;;;25.60;98.90;;;;;;5124583;28;20580;-75
2022/07/13 08:19:24;;;;;;;13.27;6.10;;;25.90;98.10;;;;;;5096352;28;20074;-75
2022/07/13 08:21:50;;;;;;;7.53;5.55;;;26.00;96.20;;;;;;5099888;28;20055;-75
2022/07/13 08:24:16;;;;;;;8.85;5.93;;;26.20;96.00;;;;;;5106501;28;20123;-76
2022/07/13 08:26:42;;;;;;;8.10;5.47;;;26.60;96.90;;;;;;5113133;28;20112;-79
2022/07/13 08:29:07;;;;;;;9.10;6.60;;;27.30;97.00;;;;;;5094068;28;20052;-76
2022/07/13 08:31:33;;;;;;;7.80;5.00;;;27.60;93.90;;;;;;5094659;28;20381;-77
2022/07/13 08:39:28;;;;;;;8.55;4.93;;;28.60;90.50;;;;;;5119983;27;20100;-76
2022/07/13 08:41:57;;;;;;;8.45;5.70;;;28.80;88.80;;;;;;5084879;27;20051;-77
2022/07/13 08:44:24;;;;;;;8.05;5.55;;;28.70;84.70;;;;;;5088559;28;20058;-75
2022/07/13 08:46:50;;;;;;;8.77;5.40;;;28.90;86.60;;;;;;5100238;27;20099;-77
2022/07/13 08:49:16;;;;;;;8.77;5.28;;;29.00;86.80;;;;;;5119305;27;20052;-76
2022/07/13 08:51:44;;;;;;;11.57;5.20;;;29.00;87.50;;;;;;5127631;27;20042;-76
2022/07/13 08:54:10;;;;;;;8.48;5.38;;;29.10;85.90;;;;;;5104782;27;20055;-76
2022/07/13 08:56:36;;;;;;;8.13;4.93;;;29.20;86.20;;;;;;5126632;27;20040;-75
2022/07/13 08:59:02;;;;;;;8.20;4.57;;;29.30;84.20;;;;;;5107031;27;20100;-76
2022/07/13 09:01:27;;;;;;;7.43;4.63;;;29.40;85.10;;;;;;5105681;27;20765;-78
2022/07/13 09:03:53;;;;;;;8.52;4.82;;;29.50;83.40;;;;;;5123237;27;20062;-72
2022/07/13 09:06:48;;;;;;;8.40;4.80;;;29.70;83.10;;;;;;5123964;27;20043;-76
2022/07/13 09:09:38;;;;;;;7.45;4.30;;;29.60;81.10;;;;;;5101606;28;20462;-75
2022/07/13 09:12:21;;;;;;;9.00;5.10;;;29.80;80.80;;;;;;5105880;27;20075;-74
2022/07/13 09:14:56;;;;;;;7.45;5.00;;;29.90;79.60;;;;;;5098078;28;20062;-77
2022/07/13 09:17:39;;;;;;;8.25;4.55;;;30.00;76.80;;;;;;5083713;28;20386;-79
2022/07/13 09:20:10;;;;;;;7.03;4.72;;;30.10;79.20;;;;;;5117206;27;20051;-76
2022/07/13 09:22:45;;;;;;;;;;;30.20;80.40;;;;;;5108420;28;20414;-77
2022/07/13 09:25:14;;;;;;;9.70;5.20;;;30.20;79.40;;;;;;5119195;27;19926;-76
2022/07/13 09:27:47;;;;;;;10.13;5.22;;;30.20;77.70;;;;;;5099976;27;20128;-76
2022/07/13 09:30:26;;;;;;;7.53;4.40;;;30.00;76.60;;;;;;5097177;27;20122;-76
2022/07/13 09:32:57;;;;;;;9.15;4.65;;;30.00;78.30;;;;;;5099082;28;20128;-76
2022/07/13 09:35:47;;;;;;;9.23;4.95;;;29.90;79.40;;;;;;5102464;27;20370;-76
2022/07/13 09:38:34;;;;;;;7.63;4.75;;;30.10;78.60;;;;;;5089913;27;20060;-74
2022/07/13 09:41:24;;;;;;;9.32;5.28;;;30.30;77.10;;;;;;5080880;28;20132;-82
2022/07/13 09:47:01;;;;;;;8.57;5.45;;;30.30;73.00;;;;;;5125636;27;20084;-76
2022/07/13 09:49:30;;;;;;;8.52;5.30;;;30.20;78.00;;;;;;5101887;28;20098;-78
2022/07/13 09:51:57;;;;;;;9.80;5.65;;;30.30;77.80;;;;;;5098194;28;20047;-77
2022/07/13 09:54:29;;;;;;;8.57;5.80;;;30.40;79.10;;;;;;5107238;27;20041;-75
2022/07/13 09:57:01;;;;;;;10.60;5.68;;;30.40;78.80;;;;;;5095495;28;20043;-78
2022/07/13 09:59:28;;;;;;;9.75;5.90;;;30.50;77.90;;;;;;5088076;27;20047;-78
2022/07/13 10:01:55;;;;;;;9.73;5.25;;;30.40;75.40;;;;;;5114904;27;20308;-77
2022/07/13 10:04:22;;;;;;;8.82;4.60;;;30.40;77.20;;;;;;5109382;28;20505;-76
2022/07/13 10:06:49;;;;;;;9.63;5.65;;;30.60;78.50;;;;;;5128665;27;20047;-75
2022/07/13 10:09:18;;;;;;;8.57;5.45;;;30.60;75.30;;;;;;5102638;27;20090;-76
2022/07/13 10:11:44;;;;;;;8.98;5.20;;;30.70;76.60;;;;;;5099921;27;20162;-73
2022/07/13 10:14:11;;;;;;;7.53;4.88;;;30.50;71.80;;;;;;5131911;27;20042;-75
2022/07/13 10:16:38;;;;;;;8.50;5.07;;;30.60;76.00;;;;;;5094452;28;20132;-72
2022/07/13 10:19:05;;;;;;;7.55;4.32;;;30.80;74.50;;;;;;5111973;27;20031;-76
2022/07/13 10:22:03;;;;;;;7.38;4.85;;;30.80;75.90;;;;;;5134849;27;20050;-76
2022/07/13 10:24:29;;;;;;;8.60;4.40;;;30.90;73.10;;;;;;5113104;28;20118;-75
2022/07/13 10:27:25;;;;;;;6.53;3.88;;;30.80;72.90;;;;;;5092289;27;20093;-78
2022/07/13 10:29:56;;;;;;;6.53;4.70;;;30.90;72.50;;;;;;5084582;28;20489;-74
2022/07/13 10:32:23;;;;;;;7.15;4.50;;;30.80;70.70;;;;;;5110222;27;20470;-77
2022/07/13 10:35:00;;;;;;;6.85;4.43;;;30.90;71.60;;;;;;5110736;27;20054;-76
2022/07/13 10:37:26;;;;;;;7.13;3.90;;;30.60;70.30;;;;;;5129599;27;20469;-76
2022/07/13 10:40:15;;;;;;;6.28;3.63;;;30.50;70.40;;;;;;5110599;27;20054;-76
2022/07/13 10:42:53;;;;;;;8.40;4.10;;;30.60;71.10;;;;;;5110244;27;20093;-78
2022/07/13 10:45:34;;;;;;;7.80;4.20;;;30.40;68.40;;;;;;5109820;27;20122;-77
2022/07/13 10:48:06;;;;;;;6.63;3.63;;;30.60;69.80;;;;;;5114064;27;20112;-75
2022/07/13 10:50:53;;;;;;;6.85;3.90;;;30.50;68.70;;;;;;5085953;27;20056;-77
2022/07/13 10:53:19;;;;;;;6.65;3.72;;;30.10;71.20;;;;;;5116725;27;20486;-79
2022/07/13 10:55:59;;;;;;;7.57;3.53;;;30.00;72.50;;;;;;5107509;27;20051;-78
2022/07/13 10:58:30;;;;;;;8.27;3.40;;;30.10;74.40;;;;;;5099090;27;20207;-77
2022/07/13 11:00:58;;;;;;;7.10;3.30;;;30.00;74.40;;;;;;5116965;27;20044;-77
2022/07/13 11:03:28;;;;;;;8.10;3.10;;;29.80;71.20;;;;;;5094816;28;20505;-75
2022/07/13 11:06:14;;;;;;;6.65;3.10;;;29.50;71.00;;;;;;5102299;27;20051;-77
2022/07/13 11:08:41;;;;;;;6.07;3.10;;;29.30;71.80;;;;;;5095984;28;20039;-78
2022/07/13 11:11:29;;;;;;;5.68;2.92;;;29.10;71.80;;;;;;5109578;27;20047;-77
2022/07/13 11:13:54;;;;;;;5.60;2.65;;;28.90;72.70;;;;;;5101046;28;20040;-76
2022/07/13 11:16:46;;;;;;;6.00;2.60;;;28.90;72.60;;;;;;5078771;27;20061;-78
2022/07/13 11:19:11;;;;;;;;;;;28.90;74.60;;;;;;5118308;27;20498;-76
2022/07/13 11:22:10;;;;;;;7.35;2.60;;;29.50;73.30;;;;;;5115746;28;19927;-77
2022/07/13 11:27:37;;;;;;;5.88;2.20;;;30.20;65.80;;;;;;5114565;28;20047;-76
2022/07/13 11:30:04;;;;;;;4.50;2.10;;;30.50;65.90;;;;;;5112871;28;20043;-76
2022/07/13 11:32:29;;;;;;;4.88;2.10;;;30.70;64.50;;;;;;5133700;28;20049;-77
2022/07/13 11:34:55;;;;;;;4.95;2.33;;;30.90;65.40;;;;;;5133397;28;20047;-76
2022/07/13 11:37:25;;;;;;;6.32;2.20;;;31.10;63.10;;;;;;5078471;28;20043;-77
2022/07/13 11:39:51;;;;;;;5.95;2.15;;;31.30;62.30;;;;;;5102055;28;20426;-74
2022/07/13 11:42:22;;;;;;;4.82;2.00;;;31.40;59.90;;;;;;5128008;28;20123;-77
2022/07/13 11:44:52;;;;;;;;;;;31.30;59.10;;;;;;5090093;28;20047;-76
2022/07/13 11:47:18;;;;;;;4.18;1.80;;;31.00;59.50;;;;;;5133487;28;19927;-76
2022/07/13 11:49:52;;;;;;;5.72;2.00;;;31.10;58.80;;;;;;5097755;28;20055;-74
2022/07/13 11:52:21;;;;;;;4.95;1.88;;;30.80;58.00;;;;;;5107351;28;20073;-79
2022/07/13 11:55:00;;;;;;;5.63;2.20;;;30.60;58.60;;;;;;5095495;28;20075;-76
2022/07/13 11:57:27;;;;;;;4.68;1.90;;;30.50;58.40;;;;;;5098478;28;20074;-78
2022/07/13 11:59:58;;;;;;;5.60;2.13;;;30.30;56.70;;;;;;5114016;28;20477;-77
2022/07/13 12:02:24;;;;;;;5.65;2.00;;;30.10;56.70;;;;;;5098417;28;20118;-77
2022/07/13 12:04:49;;;;;;;4.60;1.98;;;30.20;57.20;;;;;;5101873;28;20139;-78
2022/07/13 12:07:28;;;;;;;5.28;2.05;;;30.20;55.60;;;;;;5108327;28;20047;-77
2022/07/13 12:10:05;;;;;;;4.78;1.90;;;30.20;56.30;;;;;;5111847;27;20090;-79
2022/07/13 12:12:34;;;;;;;5.85;1.95;;;30.10;56.20;;;;;;5105194;27;20050;-79
2022/07/13 12:15:00;;;;;;;4.60;1.92;;;29.90;57.10;;;;;;5137044;27;20047;-76
2022/07/13 12:17:28;;;;;;;5.53;2.00;;;29.70;57.70;;;;;;5115365;28;20054;-76
2022/07/13 12:20:10;;;;;;;5.53;2.10;;;29.60;59.20;;;;;;5126367;27;20112;-77
2022/07/13 12:22:36;;;;;;;5.35;2.10;;;29.50;58.40;;;;;;5118946;27;20042;-78
2022/07/13 12:25:03;;;;;;;6.38;2.08;;;29.50;57.40;;;;;;5115558;28;20478;-78
2022/07/13 12:27:29;;;;;;;6.97;1.90;;;29.70;59.80;;;;;;5133954;27;20092;-77
2022/07/13 12:30:08;;;;;;;5.03;1.80;;;30.00;59.50;;;;;;5115720;27;20402;-77
2022/07/13 12:33:01;;;;;;;6.13;1.92;;;30.30;57.00;;;;;;5119057;27;20057;-74
2022/07/13 12:35:31;;;;;;;4.30;1.85;;;30.20;54.50;;;;;;5101178;27;20118;-74
2022/07/13 12:37:59;;;;;;;5.80;2.00;;;29.90;56.00;;;;;;5115276;28;20048;-77
2022/07/13 12:40:52;;;;;;;4.13;1.77;;;29.70;55.90;;;;;;5133919;27;20047;-72
2022/07/13 12:43:26;;;;;;;5.13;2.08;;;29.70;57.70;;;;;;5108420;27;20094;-75
2022/07/13 12:45:55;;;;;;;5.13;2.05;;;29.70;59.20;;;;;;5135907;27;20035;-76
2022/07/13 12:48:30;;;;;;;5.32;2.00;;;29.70;59.70;;;;;;5136466;27;20518;-74
2022/07/13 12:51:05;;;;;;;7.75;2.20;;;29.40;60.40;;;;;;5113425;28;20048;-78
2022/07/13 12:53:47;;;;;;;4.32;1.90;;;29.50;61.40;;;;;;5074289;28;20051;-76
2022/07/13 12:56:14;;;;;;;5.97;2.10;;;29.50;62.00;;;;;;5110326;27;20454;-76
2022/07/13 12:58:47;;;;;;;4.50;1.90;;;29.30;62.00;;;;;;5134824;27;20042;-77
2022/07/13 13:01:45;;;;;;;5.03;2.20;;;29.20;63.30;;;;;;5128490;27;20039;-77